sensor_id;sensor_type;location;lat;lon;timestamp;P1;durP1;ratioP1;P2;durP2;ratioP2
17345;SDS011;8790;53.590;10.002;2023-06-04T00:01:57;5.47;;;2.80;;
17345;SDS011;8790;53.590;10.002;2023-06-04T00:04:29;3.70;;;2.63;;
17345;SDS011;8790;53.590;10.002;2023-06-04T00:07:01;5.53;;;3.10;;
17345;SDS011;8790;53.590;10.002;2023-06-04T00:09:34;4.60;;;2.80;;
17345;SDS011;8790;53.590;10.002;2023-06-04T00:12:06;4.33;;;3.10;;
17345;SDS011;8790;53.590;10.002;2023-06-04T00:14:38;3.53;;;2.80;;
17345;SDS011;8790;53.590;10.002;2023-06-04T00:17:10;6.77;;;3.17;;
17345;SDS011;8790;53.590;10.002;2023-06-04T00:19:42;4.53;;;2.80;;
17345;SDS011;8790;53.590;10.002;2023-06-04T00:22:13;4.20;;;2.83;;
17345;SDS011;8790;53.590;10.002;2023-06-04T00:24:47;6.20;;;3.00;;
17345;SDS011;8790;53.590;10.002;2023-06-04T00:27:18;5.80;;;3.20;;
17345;SDS011;8790;53.590;10.002;2023-06-04T00:29:50;4.60;;;3.40;;
17345;SDS011;8790;53.590;10.002;2023-06-04T00:32:22;4.40;;;3.20;;
17345;SDS011;8790;53.590;10.002;2023-06-04T00:34:54;6.27;;;3.17;;
17345;SDS011;8790;53.590;10.002;2023-06-04T00:37:28;4.60;;;2.67;;
17345;SDS011;8790;53.590;10.002;2023-06-04T00:40:01;5.53;;;2.70;;
17345;SDS011;8790;53.590;10.002;2023-06-04T00:42:33;3.00;;;2.70;;
17345;SDS011;8790;53.590;10.002;2023-06-04T00:45:05;9.03;;;2.80;;
17345;SDS011;8790;53.590;10.002;2023-06-04T00:47:39;3.37;;;2.50;;
17345;SDS011;8790;53.590;10.002;2023-06-04T00:50:11;3.23;;;2.57;;
17345;SDS011;8790;53.590;10.002;2023-06-04T00:52:43;3.67;;;2.50;;
17345;SDS011;8790;53.590;10.002;2023-06-04T00:55:16;5.30;;;2.50;;
17345;SDS011;8790;53.590;10.002;2023-06-04T00:57:48;3.30;;;2.50;;
17345;SDS011;8790;53.590;10.002;2023-06-04T01:00:20;3.20;;;2.60;;
17345;SDS011;8790;53.590;10.002;2023-06-04T01:02:52;3.83;;;2.73;;
17345;SDS011;8790;53.590;10.002;2023-06-04T01:05:26;3.03;;;2.40;;
17345;SDS011;8790;53.590;10.002;2023-06-04T01:08:05;4.93;;;3.00;;
17345;SDS011;8790;53.590;10.002;2023-06-04T01:10:50;6.23;;;2.70;;
17345;SDS011;8790;53.590;10.002;2023-06-04T01:13:23;3.27;;;2.57;;
17345;SDS011;8790;53.590;10.002;2023-06-04T01:15:55;4.23;;;3.00;;
17345;SDS011;8790;53.590;10.002;2023-06-04T01:18:29;5.90;;;2.60;;
17345;SDS011;8790;53.590;10.002;2023-06-04T01:21:07;2.80;;;2.60;;
17345;SDS011;8790;53.590;10.002;2023-06-04T01:23:45;5.00;;;2.70;;
17345;SDS011;8790;53.590;10.002;2023-06-04T01:26:30;3.10;;;2.47;;
17345;SDS011;8790;53.590;10.002;2023-06-04T01:29:02;3.13;;;2.53;;
17345;SDS011;8790;53.590;10.002;2023-06-04T01:31:35;5.33;;;2.83;;
17345;SDS011;8790;53.590;10.002;2023-06-04T01:34:07;3.30;;;2.97;;
17345;SDS011;8790;53.590;10.002;2023-06-04T01:36:40;4.13;;;2.90;;
17345;SDS011;8790;53.590;10.002;2023-06-04T01:39:12;4.57;;;3.10;;
17345;SDS011;8790;53.590;10.002;2023-06-04T01:41:45;4.40;;;3.00;;
17345;SDS011;8790;53.590;10.002;2023-06-04T01:44:17;3.80;;;2.73;;
17345;SDS011;8790;53.590;10.002;2023-06-04T01:46:48;3.33;;;3.00;;
17345;SDS011;8790;53.590;10.002;2023-06-04T01:49:20;3.10;;;2.73;;
17345;SDS011;8790;53.590;10.002;2023-06-04T01:51:52;4.67;;;2.80;;
17345;SDS011;8790;53.590;10.002;2023-06-04T01:54:23;3.63;;;2.60;;
17345;SDS011;8790;53.590;10.002;2023-06-04T01:56:57;3.93;;;2.40;;
17345;SDS011;8790;53.590;10.002;2023-06-04T01:59:29;5.40;;;2.77;;
17345;SDS011;8790;53.590;10.002;2023-06-04T02:02:02;3.13;;;2.60;;
17345;SDS011;8790;53.590;10.002;2023-06-04T02:04:34;2.90;;;2.50;;
17345;SDS011;8790;53.590;10.002;2023-06-04T02:07:06;3.43;;;2.70;;
17345;SDS011;8790;53.590;10.002;2023-06-04T02:09:38;3.90;;;3.10;;
17345;SDS011;8790;53.590;10.002;2023-06-04T02:12:11;5.93;;;3.10;;
17345;SDS011;8790;53.590;10.002;2023-06-04T02:14:44;4.70;;;3.20;;
17345;SDS011;8790;53.590;10.002;2023-06-04T02:17:17;4.10;;;2.97;;
17345;SDS011;8790;53.590;10.002;2023-06-04T02:19:48;4.27;;;2.93;;
17345;SDS011;8790;53.590;10.002;2023-06-04T02:22:21;6.60;;;3.30;;
17345;SDS011;8790;53.590;10.002;2023-06-04T02:24:52;4.47;;;3.60;;
17345;SDS011;8790;53.590;10.002;2023-06-04T02:27:26;4.43;;;3.50;;
17345;SDS011;8790;53.590;10.002;2023-06-04T02:29:58;5.70;;;3.57;;
17345;SDS011;8790;53.590;10.002;2023-06-04T02:32:29;4.10;;;3.20;;
17345;SDS011;8790;53.590;10.002;2023-06-04T02:35:02;3.70;;;3.07;;
17345;SDS011;8790;53.590;10.002;2023-06-04T02:37:34;3.10;;;2.80;;
17345;SDS011;8790;53.590;10.002;2023-06-04T02:40:06;4.23;;;2.40;;
17345;SDS011;8790;53.590;10.002;2023-06-04T02:42:40;3.90;;;2.97;;
17345;SDS011;8790;53.590;10.002;2023-06-04T02:45:12;4.97;;;3.10;;
17345;SDS011;8790;53.590;10.002;2023-06-04T02:47:44;6.50;;;3.40;;
17345;SDS011;8790;53.590;10.002;2023-06-04T02:50:15;4.23;;;2.77;;
17345;SDS011;8790;53.590;10.002;2023-06-04T02:52:47;4.60;;;3.50;;
17345;SDS011;8790;53.590;10.002;2023-06-04T02:55:19;3.93;;;3.10;;
17345;SDS011;8790;53.590;10.002;2023-06-04T02:57:52;3.70;;;3.03;;
17345;SDS011;8790;53.590;10.002;2023-06-04T03:00:24;4.33;;;3.17;;
17345;SDS011;8790;53.590;10.002;2023-06-04T03:02:56;4.97;;;3.10;;
17345;SDS011;8790;53.590;10.002;2023-06-04T03:05:32;4.00;;;3.30;;
17345;SDS011;8790;53.590;10.002;2023-06-04T03:08:03;5.97;;;3.60;;
17345;SDS011;8790;53.590;10.002;2023-06-04T03:10:36;3.70;;;3.10;;
17345;SDS011;8790;53.590;10.002;2023-06-04T03:13:09;4.47;;;3.57;;
17345;SDS011;8790;53.590;10.002;2023-06-04T03:15:41;3.80;;;3.10;;
17345;SDS011;8790;53.590;10.002;2023-06-04T03:18:16;4.03;;;3.10;;
17345;SDS011;8790;53.590;10.002;2023-06-04T03:20:48;3.97;;;3.23;;
17345;SDS011;8790;53.590;10.002;2023-06-04T03:23:20;6.00;;;3.20;;
17345;SDS011;8790;53.590;10.002;2023-06-04T03:25:52;3.37;;;3.07;;
17345;SDS011;8790;53.590;10.002;2023-06-04T03:28:26;5.20;;;3.53;;
17345;SDS011;8790;53.590;10.002;2023-06-04T03:30:58;3.77;;;3.20;;
17345;SDS011;8790;53.590;10.002;2023-06-04T03:33:31;3.63;;;3.30;;
17345;SDS011;8790;53.590;10.002;2023-06-04T03:36:03;5.30;;;3.23;;
17345;SDS011;8790;53.590;10.002;2023-06-04T03:38:35;4.07;;;3.20;;
17345;SDS011;8790;53.590;10.002;2023-06-04T03:41:07;3.87;;;3.30;;
17345;SDS011;8790;53.590;10.002;2023-06-04T03:43:41;4.63;;;3.23;;
17345;SDS011;8790;53.590;10.002;2023-06-04T03:46:14;4.50;;;3.20;;
17345;SDS011;8790;53.590;10.002;2023-06-04T03:48:46;5.73;;;3.00;;
17345;SDS011;8790;53.590;10.002;2023-06-04T03:51:19;4.83;;;3.20;;
17345;SDS011;8790;53.590;10.002;2023-06-04T03:53:54;3.73;;;2.93;;
17345;SDS011;8790;53.590;10.002;2023-06-04T03:56:26;3.53;;;3.10;;
17345;SDS011;8790;53.590;10.002;2023-06-04T03:59:01;5.83;;;2.90;;
17345;SDS011;8790;53.590;10.002;2023-06-04T04:01:32;4.37;;;3.43;;
17345;SDS011;8790;53.590;10.002;2023-06-04T04:04:04;5.03;;;3.10;;
17345;SDS011;8790;53.590;10.002;2023-06-04T04:06:36;3.80;;;3.00;;
17345;SDS011;8790;53.590;10.002;2023-06-04T04:09:09;5.23;;;3.17;;
17345;SDS011;8790;53.590;10.002;2023-06-04T04:11:41;5.37;;;3.43;;
17345;SDS011;8790;53.590;10.002;2023-06-04T04:14:14;3.93;;;2.57;;
17345;SDS011;8790;53.590;10.002;2023-06-04T04:16:46;4.23;;;2.90;;
17345;SDS011;8790;53.590;10.002;2023-06-04T04:19:18;5.83;;;2.87;;
17345;SDS011;8790;53.590;10.002;2023-06-04T04:21:50;5.23;;;2.93;;
17345;SDS011;8790;53.590;10.002;2023-06-04T04:24:23;4.33;;;2.77;;
17345;SDS011;8790;53.590;10.002;2023-06-04T04:26:57;3.37;;;2.60;;
17345;SDS011;8790;53.590;10.002;2023-06-04T04:29:31;4.53;;;2.60;;
17345;SDS011;8790;53.590;10.002;2023-06-04T04:32:05;3.73;;;2.73;;
17345;SDS011;8790;53.590;10.002;2023-06-04T04:34:49;4.53;;;2.60;;
17345;SDS011;8790;53.590;10.002;2023-06-04T04:37:24;3.90;;;2.83;;
17345;SDS011;8790;53.590;10.002;2023-06-04T04:39:59;3.63;;;2.80;;
17345;SDS011;8790;53.590;10.002;2023-06-04T04:42:35;3.37;;;2.60;;
17345;SDS011;8790;53.590;10.002;2023-06-04T04:45:09;4.27;;;2.90;;
17345;SDS011;8790;53.590;10.002;2023-06-04T04:47:41;6.30;;;2.80;;
17345;SDS011;8790;53.590;10.002;2023-06-04T04:50:13;5.77;;;2.77;;
17345;SDS011;8790;53.590;10.002;2023-06-04T04:52:45;3.83;;;2.80;;
17345;SDS011;8790;53.590;10.002;2023-06-04T04:55:17;3.57;;;2.77;;
17345;SDS011;8790;53.590;10.002;2023-06-04T04:57:51;3.53;;;2.60;;
17345;SDS011;8790;53.590;10.002;2023-06-04T05:00:25;3.70;;;2.90;;
17345;SDS011;8790;53.590;10.002;2023-06-04T05:02:59;5.73;;;2.97;;
17345;SDS011;8790;53.590;10.002;2023-06-04T05:05:31;3.87;;;3.10;;
17345;SDS011;8790;53.590;10.002;2023-06-04T05:08:05;6.03;;;3.50;;
17345;SDS011;8790;53.590;10.002;2023-06-04T05:10:41;6.53;;;3.07;;
17345;SDS011;8790;53.590;10.002;2023-06-04T05:13:14;5.73;;;3.33;;
17345;SDS011;8790;53.590;10.002;2023-06-04T05:15:54;5.97;;;3.37;;
17345;SDS011;8790;53.590;10.002;2023-06-04T05:18:30;4.07;;;2.87;;
17345;SDS011;8790;53.590;10.002;2023-06-04T05:21:05;5.07;;;2.90;;
17345;SDS011;8790;53.590;10.002;2023-06-04T05:23:41;4.73;;;3.30;;
17345;SDS011;8790;53.590;10.002;2023-06-04T05:26:15;6.80;;;3.17;;
17345;SDS011;8790;53.590;10.002;2023-06-04T05:28:48;4.97;;;2.50;;
17345;SDS011;8790;53.590;10.002;2023-06-04T05:31:21;4.23;;;2.67;;
17345;SDS011;8790;53.590;10.002;2023-06-04T05:33:57;5.37;;;2.80;;
17345;SDS011;8790;53.590;10.002;2023-06-04T05:36:32;4.80;;;2.60;;
17345;SDS011;8790;53.590;10.002;2023-06-04T05:39:07;3.87;;;2.80;;
17345;SDS011;8790;53.590;10.002;2023-06-04T05:41:55;5.00;;;2.73;;
17345;SDS011;8790;53.590;10.002;2023-06-04T05:44:27;6.37;;;3.00;;
17345;SDS011;8790;53.590;10.002;2023-06-04T05:47:00;3.03;;;2.27;;
17345;SDS011;8790;53.590;10.002;2023-06-04T05:49:33;4.83;;;2.73;;
17345;SDS011;8790;53.590;10.002;2023-06-04T05:52:06;4.97;;;2.60;;
17345;SDS011;8790;53.590;10.002;2023-06-04T05:54:38;6.73;;;2.87;;
17345;SDS011;8790;53.590;10.002;2023-06-04T05:57:11;5.33;;;2.40;;
17345;SDS011;8790;53.590;10.002;2023-06-04T05:59:43;5.87;;;2.83;;
17345;SDS011;8790;53.590;10.002;2023-06-04T06:02:19;3.77;;;2.20;;
17345;SDS011;8790;53.590;10.002;2023-06-04T06:04:51;5.73;;;2.60;;
17345;SDS011;8790;53.590;10.002;2023-06-04T06:07:23;7.23;;;2.63;;
17345;SDS011;8790;53.590;10.002;2023-06-04T06:09:55;4.43;;;2.37;;
17345;SDS011;8790;53.590;10.002;2023-06-04T06:12:26;6.80;;;2.43;;
17345;SDS011;8790;53.590;10.002;2023-06-04T06:14:58;5.03;;;2.30;;
17345;SDS011;8790;53.590;10.002;2023-06-04T06:17:31;6.07;;;2.37;;
17345;SDS011;8790;53.590;10.002;2023-06-04T06:20:04;6.47;;;2.33;;
17345;SDS011;8790;53.590;10.002;2023-06-04T06:22:37;10.63;;;2.47;;
17345;SDS011;8790;53.590;10.002;2023-06-04T06:25:10;5.17;;;2.30;;
17345;SDS011;8790;53.590;10.002;2023-06-04T06:27:48;6.47;;;2.60;;
17345;SDS011;8790;53.590;10.002;2023-06-04T06:30:22;7.30;;;2.63;;
17345;SDS011;8790;53.590;10.002;2023-06-04T06:32:56;5.37;;;2.30;;
17345;SDS011;8790;53.590;10.002;2023-06-04T06:35:27;5.63;;;2.60;;
17345;SDS011;8790;53.590;10.002;2023-06-04T06:37:59;3.97;;;2.40;;
17345;SDS011;8790;53.590;10.002;2023-06-04T06:40:31;6.67;;;2.27;;
17345;SDS011;8790;53.590;10.002;2023-06-04T06:43:03;4.97;;;2.33;;
17345;SDS011;8790;53.590;10.002;2023-06-04T06:45:35;4.27;;;2.37;;
17345;SDS011;8790;53.590;10.002;2023-06-04T06:48:09;6.13;;;2.40;;
17345;SDS011;8790;53.590;10.002;2023-06-04T06:50:44;5.37;;;2.23;;
17345;SDS011;8790;53.590;10.002;2023-06-04T06:53:17;4.90;;;2.30;;
17345;SDS011;8790;53.590;10.002;2023-06-04T06:55:49;4.50;;;2.53;;
17345;SDS011;8790;53.590;10.002;2023-06-04T06:58:21;4.47;;;2.20;;
17345;SDS011;8790;53.590;10.002;2023-06-04T07:00:53;4.27;;;2.13;;
17345;SDS011;8790;53.590;10.002;2023-06-04T07:03:27;5.03;;;2.30;;
17345;SDS011;8790;53.590;10.002;2023-06-04T07:05:59;4.90;;;2.60;;
17345;SDS011;8790;53.590;10.002;2023-06-04T07:08:31;3.70;;;2.10;;
17345;SDS011;8790;53.590;10.002;2023-06-04T07:11:03;6.53;;;2.10;;
17345;SDS011;8790;53.590;10.002;2023-06-04T07:13:35;4.63;;;2.33;;
17345;SDS011;8790;53.590;10.002;2023-06-04T07:16:07;5.70;;;2.40;;
17345;SDS011;8790;53.590;10.002;2023-06-04T07:18:40;3.00;;;2.00;;
17345;SDS011;8790;53.590;10.002;2023-06-04T07:21:11;4.23;;;2.60;;
17345;SDS011;8790;53.590;10.002;2023-06-04T07:23:43;4.93;;;2.53;;
17345;SDS011;8790;53.590;10.002;2023-06-04T07:26:17;3.13;;;2.10;;
17345;SDS011;8790;53.590;10.002;2023-06-04T07:28:49;5.00;;;2.60;;
17345;SDS011;8790;53.590;10.002;2023-06-04T07:31:21;3.10;;;2.27;;
17345;SDS011;8790;53.590;10.002;2023-06-04T07:33:54;7.73;;;2.30;;
17345;SDS011;8790;53.590;10.002;2023-06-04T07:36:25;4.73;;;2.03;;
17345;SDS011;8790;53.590;10.002;2023-06-04T07:38:57;3.47;;;2.07;;
17345;SDS011;8790;53.590;10.002;2023-06-04T07:41:29;4.47;;;2.20;;
17345;SDS011;8790;53.590;10.002;2023-06-04T07:44:00;4.60;;;2.30;;
17345;SDS011;8790;53.590;10.002;2023-06-04T07:46:32;5.23;;;2.20;;
17345;SDS011;8790;53.590;10.002;2023-06-04T07:49:05;4.13;;;2.13;;
17345;SDS011;8790;53.590;10.002;2023-06-04T07:51:37;5.23;;;2.20;;
17345;SDS011;8790;53.590;10.002;2023-06-04T07:54:08;4.75;;;2.22;;
17345;SDS011;8790;53.590;10.002;2023-06-04T07:56:40;4.00;;;2.00;;
17345;SDS011;8790;53.590;10.002;2023-06-04T07:59:12;4.33;;;1.90;;
17345;SDS011;8790;53.590;10.002;2023-06-04T08:01:43;4.93;;;2.03;;
17345;SDS011;8790;53.590;10.002;2023-06-04T08:04:16;3.83;;;1.90;;
17345;SDS011;8790;53.590;10.002;2023-06-04T08:06:48;4.27;;;2.17;;
17345;SDS011;8790;53.590;10.002;2023-06-04T08:09:20;3.47;;;1.70;;
17345;SDS011;8790;53.590;10.002;2023-06-04T08:11:52;3.70;;;1.80;;
17345;SDS011;8790;53.590;10.002;2023-06-04T08:14:24;3.87;;;1.90;;
17345;SDS011;8790;53.590;10.002;2023-06-04T08:16:57;4.55;;;1.73;;
17345;SDS011;8790;53.590;10.002;2023-06-04T08:19:30;3.37;;;1.60;;
17345;SDS011;8790;53.590;10.002;2023-06-04T08:22:02;4.17;;;1.73;;
17345;SDS011;8790;53.590;10.002;2023-06-04T08:24:34;4.83;;;2.00;;
17345;SDS011;8790;53.590;10.002;2023-06-04T08:27:06;3.67;;;1.85;;
17345;SDS011;8790;53.590;10.002;2023-06-04T08:29:38;2.72;;;1.60;;
17345;SDS011;8790;53.590;10.002;2023-06-04T08:32:10;5.55;;;1.70;;
17345;SDS011;8790;53.590;10.002;2023-06-04T08:34:43;2.87;;;1.60;;
17345;SDS011;8790;53.590;10.002;2023-06-04T08:37:16;2.23;;;1.60;;
17345;SDS011;8790;53.590;10.002;2023-06-04T08:39:48;3.30;;;1.77;;
17345;SDS011;8790;53.590;10.002;2023-06-04T08:42:21;3.67;;;1.77;;
17345;SDS011;8790;53.590;10.002;2023-06-04T08:44:58;3.37;;;1.27;;
17345;SDS011;8790;53.590;10.002;2023-06-04T08:47:32;4.67;;;1.80;;
17345;SDS011;8790;53.590;10.002;2023-06-04T08:50:09;3.15;;;1.70;;
17345;SDS011;8790;53.590;10.002;2023-06-04T08:52:41;2.60;;;1.70;;
17345;SDS011;8790;53.590;10.002;2023-06-04T08:55:13;4.05;;;1.73;;
17345;SDS011;8790;53.590;10.002;2023-06-04T08:57:49;11.98;;;2.03;;
17345;SDS011;8790;53.590;10.002;2023-06-04T09:00:21;3.03;;;1.20;;
17345;SDS011;8790;53.590;10.002;2023-06-04T09:02:53;3.65;;;1.33;;
17345;SDS011;8790;53.590;10.002;2023-06-04T09:05:27;2.88;;;1.50;;
17345;SDS011;8790;53.590;10.002;2023-06-04T09:08:00;3.42;;;1.38;;
17345;SDS011;8790;53.590;10.002;2023-06-04T09:10:33;4.78;;;2.05;;
17345;SDS011;8790;53.590;10.002;2023-06-04T09:13:07;6.45;;;1.65;;
17345;SDS011;8790;53.590;10.002;2023-06-04T09:15:40;5.07;;;2.60;;
17345;SDS011;8790;53.590;10.002;2023-06-04T09:18:12;5.13;;;1.67;;
17345;SDS011;8790;53.590;10.002;2023-06-04T09:20:45;1.75;;;1.40;;
17345;SDS011;8790;53.590;10.002;2023-06-04T09:23:16;3.53;;;1.55;;
17345;SDS011;8790;53.590;10.002;2023-06-04T09:25:48;3.63;;;1.42;;
17345;SDS011;8790;53.590;10.002;2023-06-04T09:28:22;4.55;;;1.45;;
17345;SDS011;8790;53.590;10.002;2023-06-04T09:30:53;5.15;;;1.65;;
17345;SDS011;8790;53.590;10.002;2023-06-04T09:33:26;2.33;;;1.27;;
17345;SDS011;8790;53.590;10.002;2023-06-04T09:36:00;3.42;;;1.50;;
17345;SDS011;8790;53.590;10.002;2023-06-04T09:38:32;3.78;;;1.20;;
17345;SDS011;8790;53.590;10.002;2023-06-04T09:41:10;4.85;;;1.77;;
17345;SDS011;8790;53.590;10.002;2023-06-04T09:43:42;2.17;;;1.17;;
17345;SDS011;8790;53.590;10.002;2023-06-04T09:46:15;1.60;;;1.20;;
17345;SDS011;8790;53.590;10.002;2023-06-04T09:48:48;7.43;;;1.33;;
17345;SDS011;8790;53.590;10.002;2023-06-04T09:51:31;2.67;;;1.40;;
17345;SDS011;8790;53.590;10.002;2023-06-04T09:54:03;2.92;;;1.40;;
17345;SDS011;8790;53.590;10.002;2023-06-04T09:56:38;13.48;;;1.73;;
17345;SDS011;8790;53.590;10.002;2023-06-04T09:59:11;4.75;;;1.50;;
17345;SDS011;8790;53.590;10.002;2023-06-04T10:01:44;3.92;;;1.55;;
17345;SDS011;8790;53.590;10.002;2023-06-04T10:04:16;3.30;;;1.40;;
17345;SDS011;8790;53.590;10.002;2023-06-04T10:06:49;46.83;;;4.22;;
17345;SDS011;8790;53.590;10.002;2023-06-04T10:09:21;2.83;;;1.40;;
17345;SDS011;8790;53.590;10.002;2023-06-04T10:11:56;2.90;;;1.40;;
17345;SDS011;8790;53.590;10.002;2023-06-04T10:14:34;2.17;;;1.45;;
17345;SDS011;8790;53.590;10.002;2023-06-04T10:17:12;2.58;;;1.55;;
17345;SDS011;8790;53.590;10.002;2023-06-04T10:19:45;3.17;;;1.25;;
17345;SDS011;8790;53.590;10.002;2023-06-04T10:22:20;2.22;;;1.35;;
17345;SDS011;8790;53.590;10.002;2023-06-04T10:24:52;2.55;;;1.13;;
17345;SDS011;8790;53.590;10.002;2023-06-04T10:27:24;3.50;;;1.50;;
17345;SDS011;8790;53.590;10.002;2023-06-04T10:29:56;2.70;;;1.67;;
17345;SDS011;8790;53.590;10.002;2023-06-04T10:32:28;2.47;;;1.40;;
17345;SDS011;8790;53.590;10.002;2023-06-04T10:35:03;2.58;;;1.40;;
17345;SDS011;8790;53.590;10.002;2023-06-04T10:37:39;3.38;;;1.20;;
17345;SDS011;8790;53.590;10.002;2023-06-04T10:40:11;2.25;;;1.70;;
17345;SDS011;8790;53.590;10.002;2023-06-04T10:42:42;3.70;;;1.50;;
17345;SDS011;8790;53.590;10.002;2023-06-04T10:45:14;3.95;;;1.75;;
17345;SDS011;8790;53.590;10.002;2023-06-04T10:47:46;3.38;;;1.70;;
17345;SDS011;8790;53.590;10.002;2023-06-04T10:50:18;5.43;;;1.60;;
17345;SDS011;8790;53.590;10.002;2023-06-04T10:52:52;2.13;;;1.40;;
17345;SDS011;8790;53.590;10.002;2023-06-04T10:55:25;2.13;;;1.40;;
17345;SDS011;8790;53.590;10.002;2023-06-04T10:57:57;2.83;;;1.60;;
17345;SDS011;8790;53.590;10.002;2023-06-04T11:00:36;3.05;;;1.58;;
17345;SDS011;8790;53.590;10.002;2023-06-04T11:03:09;3.42;;;1.70;;
17345;SDS011;8790;53.590;10.002;2023-06-04T11:05:42;2.97;;;1.30;;
17345;SDS011;8790;53.590;10.002;2023-06-04T11:08:25;2.63;;;1.85;;
17345;SDS011;8790;53.590;10.002;2023-06-04T11:10:59;3.25;;;1.48;;
17345;SDS011;8790;53.590;10.002;2023-06-04T11:13:42;3.25;;;1.30;;
17345;SDS011;8790;53.590;10.002;2023-06-04T11:16:15;4.97;;;2.05;;
17345;SDS011;8790;53.590;10.002;2023-06-04T11:18:54;8.40;;;5.75;;
17345;SDS011;8790;53.590;10.002;2023-06-04T11:21:26;2.78;;;1.65;;
17345;SDS011;8790;53.590;10.002;2023-06-04T11:23:59;3.75;;;1.80;;
17345;SDS011;8790;53.590;10.002;2023-06-04T11:26:31;4.60;;;2.40;;
17345;SDS011;8790;53.590;10.002;2023-06-04T11:29:06;2.80;;;1.60;;
17345;SDS011;8790;53.590;10.002;2023-06-04T11:31:42;3.45;;;1.20;;
17345;SDS011;8790;53.590;10.002;2023-06-04T11:34:22;3.30;;;1.70;;
17345;SDS011;8790;53.590;10.002;2023-06-04T11:36:54;3.40;;;1.80;;
17345;SDS011;8790;53.590;10.002;2023-06-04T11:39:33;2.63;;;1.42;;
17345;SDS011;8790;53.590;10.002;2023-06-04T11:42:08;3.67;;;1.30;;
17345;SDS011;8790;53.590;10.002;2023-06-04T11:44:40;3.08;;;1.58;;
17345;SDS011;8790;53.590;10.002;2023-06-04T11:47:18;5.32;;;1.60;;
17345;SDS011;8790;53.590;10.002;2023-06-04T11:49:53;2.28;;;1.40;;
17345;SDS011;8790;53.590;10.002;2023-06-04T11:52:26;2.10;;;1.55;;
17345;SDS011;8790;53.590;10.002;2023-06-04T11:55:00;4.28;;;1.60;;
17345;SDS011;8790;53.590;10.002;2023-06-04T11:57:32;1.63;;;1.23;;
17345;SDS011;8790;53.590;10.002;2023-06-04T12:00:04;4.20;;;1.85;;
17345;SDS011;8790;53.590;10.002;2023-06-04T12:02:48;4.20;;;1.60;;
17345;SDS011;8790;53.590;10.002;2023-06-04T12:05:21;2.90;;;1.42;;
17345;SDS011;8790;53.590;10.002;2023-06-04T12:08:03;3.60;;;1.48;;
17345;SDS011;8790;53.590;10.002;2023-06-04T12:10:38;1.80;;;1.50;;
17345;SDS011;8790;53.590;10.002;2023-06-04T12:13:10;2.08;;;1.60;;
17345;SDS011;8790;53.590;10.002;2023-06-04T12:15:42;2.92;;;1.20;;
17345;SDS011;8790;53.590;10.002;2023-06-04T12:18:22;2.53;;;1.35;;
17345;SDS011;8790;53.590;10.002;2023-06-04T12:20:54;2.97;;;1.50;;
17345;SDS011;8790;53.590;10.002;2023-06-04T12:23:26;3.38;;;1.55;;
17345;SDS011;8790;53.590;10.002;2023-06-04T12:25:59;3.80;;;1.67;;
17345;SDS011;8790;53.590;10.002;2023-06-04T12:28:33;2.25;;;1.60;;
17345;SDS011;8790;53.590;10.002;2023-06-04T12:31:14;3.25;;;1.40;;
17345;SDS011;8790;53.590;10.002;2023-06-04T12:33:47;2.60;;;1.20;;
17345;SDS011;8790;53.590;10.002;2023-06-04T12:36:18;3.05;;;1.42;;
17345;SDS011;8790;53.590;10.002;2023-06-04T12:38:50;2.47;;;1.60;;
17345;SDS011;8790;53.590;10.002;2023-06-04T12:41:23;3.33;;;1.52;;
17345;SDS011;8790;53.590;10.002;2023-06-04T12:43:55;2.10;;;1.27;;
17345;SDS011;8790;53.590;10.002;2023-06-04T12:46:27;2.42;;;1.60;;
17345;SDS011;8790;53.590;10.002;2023-06-04T12:48:59;2.10;;;1.30;;
17345;SDS011;8790;53.590;10.002;2023-06-04T12:51:31;2.17;;;1.20;;
17345;SDS011;8790;53.590;10.002;2023-06-04T12:54:03;1.70;;;1.42;;
17345;SDS011;8790;53.590;10.002;2023-06-04T12:56:36;2.03;;;1.20;;
17345;SDS011;8790;53.590;10.002;2023-06-04T12:59:07;4.03;;;1.30;;
17345;SDS011;8790;53.590;10.002;2023-06-04T13:01:39;2.17;;;1.23;;
17345;SDS011;8790;53.590;10.002;2023-06-04T13:04:11;2.28;;;1.30;;
17345;SDS011;8790;53.590;10.002;2023-06-04T13:06:43;2.00;;;1.38;;
17345;SDS011;8790;53.590;10.002;2023-06-04T13:09:15;3.30;;;1.58;;
17345;SDS011;8790;53.590;10.002;2023-06-04T13:11:50;2.65;;;1.40;;
17345;SDS011;8790;53.590;10.002;2023-06-04T13:14:22;3.30;;;1.60;;
17345;SDS011;8790;53.590;10.002;2023-06-04T13:16:54;1.95;;;1.30;;
17345;SDS011;8790;53.590;10.002;2023-06-04T13:19:26;3.47;;;1.30;;
17345;SDS011;8790;53.590;10.002;2023-06-04T13:21:57;1.88;;;1.48;;
17345;SDS011;8790;53.590;10.002;2023-06-04T13:24:29;3.63;;;1.38;;
17345;SDS011;8790;53.590;10.002;2023-06-04T13:27:02;4.45;;;1.80;;
17345;SDS011;8790;53.590;10.002;2023-06-04T13:29:34;2.13;;;1.35;;
17345;SDS011;8790;53.590;10.002;2023-06-04T13:32:06;2.75;;;1.30;;
17345;SDS011;8790;53.590;10.002;2023-06-04T13:34:38;3.53;;;1.52;;
17345;SDS011;8790;53.590;10.002;2023-06-04T13:37:09;3.53;;;1.45;;
17345;SDS011;8790;53.590;10.002;2023-06-04T13:39:42;3.15;;;1.42;;
17345;SDS011;8790;53.590;10.002;2023-06-04T13:42:16;3.97;;;1.27;;
17345;SDS011;8790;53.590;10.002;2023-06-04T13:44:47;3.13;;;1.67;;
17345;SDS011;8790;53.590;10.002;2023-06-04T13:47:19;4.10;;;1.40;;
17345;SDS011;8790;53.590;10.002;2023-06-04T13:49:52;2.83;;;1.70;;
17345;SDS011;8790;53.590;10.002;2023-06-04T13:52:23;1.80;;;1.17;;
17345;SDS011;8790;53.590;10.002;2023-06-04T13:54:55;6.13;;;1.60;;
17345;SDS011;8790;53.590;10.002;2023-06-04T13:57:29;3.17;;;1.85;;
17345;SDS011;8790;53.590;10.002;2023-06-04T14:00:01;3.85;;;1.40;;
17345;SDS011;8790;53.590;10.002;2023-06-04T14:02:34;3.03;;;1.45;;
17345;SDS011;8790;53.590;10.002;2023-06-04T14:05:06;2.35;;;1.60;;
17345;SDS011;8790;53.590;10.002;2023-06-04T14:07:41;1.63;;;1.27;;
17345;SDS011;8790;53.590;10.002;2023-06-04T14:10:13;2.40;;;1.45;;
17345;SDS011;8790;53.590;10.002;2023-06-04T14:12:46;4.00;;;1.60;;
17345;SDS011;8790;53.590;10.002;2023-06-04T14:15:18;2.95;;;1.63;;
17345;SDS011;8790;53.590;10.002;2023-06-04T14:17:49;2.35;;;1.52;;
17345;SDS011;8790;53.590;10.002;2023-06-04T14:20:21;3.35;;;1.73;;
17345;SDS011;8790;53.590;10.002;2023-06-04T14:22:53;4.15;;;1.63;;
17345;SDS011;8790;53.590;10.002;2023-06-04T14:25:25;2.22;;;1.50;;
17345;SDS011;8790;53.590;10.002;2023-06-04T14:27:58;4.28;;;1.75;;
17345;SDS011;8790;53.590;10.002;2023-06-04T14:30:30;2.90;;;1.50;;
17345;SDS011;8790;53.590;10.002;2023-06-04T14:33:02;3.78;;;1.52;;
17345;SDS011;8790;53.590;10.002;2023-06-04T14:35:33;2.85;;;1.60;;
17345;SDS011;8790;53.590;10.002;2023-06-04T14:38:05;5.63;;;1.55;;
17345;SDS011;8790;53.590;10.002;2023-06-04T14:40:37;2.30;;;1.63;;
17345;SDS011;8790;53.590;10.002;2023-06-04T14:43:11;2.38;;;1.50;;
17345;SDS011;8790;53.590;10.002;2023-06-04T14:45:43;3.05;;;1.70;;
17345;SDS011;8790;53.590;10.002;2023-06-04T14:48:14;4.88;;;2.03;;
17345;SDS011;8790;53.590;10.002;2023-06-04T14:50:46;5.13;;;2.00;;
17345;SDS011;8790;53.590;10.002;2023-06-04T14:53:18;2.95;;;1.65;;
17345;SDS011;8790;53.590;10.002;2023-06-04T14:55:50;4.60;;;1.75;;
17345;SDS011;8790;53.590;10.002;2023-06-04T14:58:24;3.33;;;2.20;;
17345;SDS011;8790;53.590;10.002;2023-06-04T15:00:55;8.43;;;1.90;;
17345;SDS011;8790;53.590;10.002;2023-06-04T15:03:28;3.35;;;1.67;;
17345;SDS011;8790;53.590;10.002;2023-06-04T15:06:00;3.20;;;1.45;;
17345;SDS011;8790;53.590;10.002;2023-06-04T15:08:32;1.88;;;1.63;;
17345;SDS011;8790;53.590;10.002;2023-06-04T15:11:03;2.80;;;1.45;;
17345;SDS011;8790;53.590;10.002;2023-06-04T15:13:37;2.90;;;1.50;;
17345;SDS011;8790;53.590;10.002;2023-06-04T15:16:09;1.65;;;1.30;;
17345;SDS011;8790;53.590;10.002;2023-06-04T15:18:40;1.80;;;1.48;;
17345;SDS011;8790;53.590;10.002;2023-06-04T15:21:12;1.98;;;1.50;;
17345;SDS011;8790;53.590;10.002;2023-06-04T15:23:44;3.75;;;1.60;;